createdAt,value
2022-12-24T00:01:42.055Z,26.85
2022-12-24T00:04:11.177Z,24.45
2022-12-24T00:06:40.270Z,28.40
2022-12-24T00:09:10.417Z,21.92
2022-12-24T00:11:39.470Z,24.80
2022-12-24T00:14:08.568Z,26.65
2022-12-24T00:16:37.696Z,27.50
2022-12-24T00:19:08.136Z,27.55
2022-12-24T00:21:37.216Z,31.60
2022-12-24T00:24:06.977Z,28.80
2022-12-24T00:26:36.400Z,33.60
2022-12-24T00:29:06.676Z,30.50
2022-12-24T00:31:35.850Z,33.35
2022-12-24T00:34:04.879Z,30.88
2022-12-24T00:36:35.460Z,26.63
2022-12-24T00:39:04.753Z,31.83
2022-12-24T00:41:33.856Z,24.70
2022-12-24T00:44:06.065Z,27.05
2022-12-24T00:46:36.110Z,25.92
2022-12-24T00:49:06.097Z,29.25
2022-12-24T00:51:37.422Z,23.25
2022-12-24T00:54:07.615Z,30.55
2022-12-24T00:56:36.725Z,28.23
2022-12-24T00:59:05.783Z,31.17
2022-12-24T01:01:35.909Z,33.05
2022-12-24T01:04:19.118Z,30.98
2022-12-24T01:06:49.553Z,36.00
2022-12-24T01:09:18.662Z,35.00
2022-12-24T01:11:47.707Z,38.83
2022-12-24T01:14:16.727Z,32.75
2022-12-24T01:16:45.861Z,34.83
2022-12-24T01:19:14.918Z,32.90
2022-12-24T01:21:43.981Z,33.30
2022-12-24T01:24:17.262Z,28.15
2022-12-24T01:26:46.306Z,32.63
2022-12-24T01:29:15.385Z,28.35
2022-12-24T01:31:44.470Z,30.83
2022-12-24T01:34:13.564Z,28.20
2022-12-24T01:36:42.583Z,28.23
2022-12-24T01:39:11.713Z,28.65
2022-12-24T01:41:59.478Z,29.40
2022-12-24T01:44:36.632Z,32.55
2022-12-24T01:47:13.435Z,32.72
2022-12-24T01:49:48.008Z,30.73
2022-12-24T01:52:22.057Z,28.55
2022-12-24T01:54:56.473Z,23.52
2022-12-24T01:57:31.689Z,23.40
2022-12-24T02:00:07.688Z,32.85
2022-12-24T02:02:38.727Z,28.95
2022-12-24T02:05:13.904Z,27.33
2022-12-24T02:07:44.287Z,28.15
2022-12-24T02:10:16.284Z,28.50
2022-12-24T02:12:48.529Z,26.30
2022-12-24T02:15:20.270Z,28.70
2022-12-24T02:18:02.049Z,24.23
2022-12-24T02:20:52.860Z,24.13
2022-12-24T02:23:54.521Z,22.70
2022-12-24T02:26:43.153Z,21.77
2022-12-24T02:29:39.529Z,28.25
2022-12-24T02:32:16.089Z,27.35
2022-12-24T02:34:50.572Z,28.60
2022-12-24T02:37:24.498Z,28.52
2022-12-24T02:39:58.772Z,27.17
2022-12-24T02:42:34.190Z,31.00
2022-12-24T02:45:07.056Z,26.45
2022-12-24T02:47:39.206Z,29.38
2022-12-24T02:50:12.102Z,25.40
2022-12-24T02:52:43.986Z,28.13
2022-12-24T02:55:17.016Z,32.60
2022-12-24T02:58:26.382Z,26.92
2022-12-24T03:01:18.383Z,35.28
2022-12-24T03:04:05.409Z,29.00
2022-12-24T03:06:44.347Z,30.37
2022-12-24T03:09:21.099Z,34.05
2022-12-24T03:12:00.389Z,26.45
2022-12-24T03:14:30.718Z,34.92
2022-12-24T03:17:00.668Z,30.83
2022-12-24T03:19:32.709Z,28.05
2022-12-24T03:22:05.768Z,25.73
2022-12-24T03:24:34.896Z,28.70
2022-12-24T03:27:05.719Z,22.70
2022-12-24T03:29:35.061Z,29.08
2022-12-24T03:32:05.978Z,25.20
2022-12-24T03:34:36.510Z,21.25
2022-12-24T03:37:05.766Z,25.27
2022-12-24T03:39:34.992Z,30.95
2022-12-24T03:42:04.235Z,29.30
2022-12-24T03:44:33.240Z,34.00
2022-12-24T03:47:02.397Z,27.13
2022-12-24T03:49:31.867Z,35.40
2022-12-24T03:52:02.682Z,25.77
2022-12-24T03:54:32.017Z,29.05
2022-12-24T03:57:01.056Z,21.33
2022-12-24T03:59:30.167Z,33.10
2022-12-24T04:01:59.502Z,24.90
2022-12-24T04:04:28.718Z,33.95
2022-12-24T04:06:57.770Z,28.77
2022-12-24T04:09:28.243Z,27.63
2022-12-24T04:11:57.342Z,31.50
2022-12-24T04:14:26.589Z,28.38
2022-12-24T04:16:55.686Z,28.00
2022-12-24T04:19:24.788Z,30.58
2022-12-24T04:21:53.840Z,24.60
2022-12-24T04:24:23.020Z,24.95
2022-12-24T04:26:53.455Z,27.55
2022-12-24T04:29:22.736Z,29.45
2022-12-24T04:31:51.899Z,28.27
2022-12-24T04:34:20.988Z,26.17
2022-12-24T04:36:50.027Z,32.22
2022-12-24T04:39:19.122Z,26.88
2022-12-24T04:41:48.126Z,24.50
2022-12-24T04:44:18.577Z,30.38
2022-12-24T04:46:47.639Z,26.58
2022-12-24T04:49:16.756Z,24.83
2022-12-24T04:51:45.754Z,26.52
2022-12-24T04:54:14.836Z,30.73
2022-12-24T04:56:43.849Z,26.48
2022-12-24T04:59:12.930Z,29.75
2022-12-24T05:01:43.508Z,30.50
2022-12-24T05:04:12.680Z,27.63
2022-12-24T05:06:41.773Z,26.05
2022-12-24T05:09:10.749Z,25.55
2022-12-24T05:11:39.857Z,25.58
2022-12-24T05:14:08.857Z,31.35
2022-12-24T05:16:38.810Z,35.58
2022-12-24T05:19:09.266Z,35.95
2022-12-24T05:21:38.378Z,38.08
2022-12-24T05:24:25.959Z,29.73
2022-12-24T05:26:58.490Z,26.98
2022-12-24T05:29:27.614Z,25.70
2022-12-24T05:31:56.567Z,30.33
2022-12-24T05:34:27.047Z,29.58
2022-12-24T05:36:56.226Z,29.67
2022-12-24T05:39:25.420Z,27.67
2022-12-24T05:41:54.448Z,30.38
2022-12-24T05:44:23.552Z,31.33
2022-12-24T05:46:52.598Z,38.00
2022-12-24T05:49:21.672Z,31.73
2022-12-24T05:51:52.162Z,32.28
2022-12-24T05:54:21.319Z,31.83
2022-12-24T05:56:50.439Z,28.77
2022-12-24T05:59:19.437Z,26.60
2022-12-24T06:01:48.713Z,27.38
2022-12-24T06:04:21.668Z,25.02
2022-12-24T06:06:55.374Z,21.35
2022-12-24T06:09:24.431Z,20.63
2022-12-24T06:11:53.509Z,27.65
2022-12-24T06:14:22.548Z,27.83
2022-12-24T06:16:51.583Z,28.65
2022-12-24T06:19:20.837Z,28.88
2022-12-24T06:21:50.065Z,27.42
2022-12-24T06:24:21.497Z,28.33
2022-12-24T06:26:50.536Z,33.75
2022-12-24T06:29:19.600Z,36.38
2022-12-24T06:31:48.716Z,32.25
2022-12-24T06:34:17.833Z,28.30
2022-12-24T06:36:47.031Z,33.92
2022-12-24T06:39:16.288Z,30.58
2022-12-24T06:41:46.767Z,26.30
2022-12-24T06:44:15.802Z,29.50
2022-12-24T06:46:45.138Z,26.67
2022-12-24T06:49:14.211Z,33.13
2022-12-24T06:51:43.396Z,29.70
2022-12-24T06:54:12.430Z,28.17
2022-12-24T06:56:41.603Z,29.35
2022-12-24T06:59:12.056Z,28.33
2022-12-24T07:01:41.438Z,27.08
2022-12-24T07:04:16.204Z,28.85
2022-12-24T07:06:48.865Z,31.02
2022-12-24T07:09:17.957Z,27.50
2022-12-24T07:11:47.031Z,28.85
2022-12-24T07:14:17.524Z,25.48
2022-12-24T07:16:46.699Z,32.08
2022-12-24T07:19:16.489Z,36.40
2022-12-24T07:21:45.821Z,34.15
2022-12-24T07:24:14.884Z,32.58
2022-12-24T07:26:44.089Z,27.15
2022-12-24T07:29:13.228Z,29.77
2022-12-24T07:31:43.835Z,29.63
2022-12-24T07:34:12.934Z,26.30
2022-12-24T07:36:41.963Z,25.77
2022-12-24T07:39:11.189Z,22.65
2022-12-24T07:41:41.925Z,23.02
2022-12-24T07:44:13.813Z,27.55
2022-12-24T07:46:45.103Z,22.95
2022-12-24T07:49:14.291Z,21.90
2022-12-24T07:51:43.476Z,23.13
2022-12-24T07:54:12.675Z,19.77
2022-12-24T07:56:41.776Z,18.67
2022-12-24T07:59:13.582Z,22.58
2022-12-24T08:04:26.559Z,19.10
2022-12-24T08:06:55.627Z,23.67
2022-12-24T08:09:26.584Z,23.48
2022-12-24T08:11:55.674Z,20.05
2022-12-24T08:14:25.044Z,36.28
2022-12-24T08:16:54.146Z,19.08
2022-12-24T08:19:23.519Z,23.83
2022-12-24T08:21:56.029Z,20.63
2022-12-24T08:24:25.903Z,22.05
2022-12-24T08:26:54.961Z,22.73
2022-12-24T08:29:24.525Z,27.83
2022-12-24T08:31:53.887Z,21.20
2022-12-24T08:34:22.995Z,23.92
2022-12-24T08:36:53.454Z,26.17
2022-12-24T08:39:22.783Z,31.77
2022-12-24T08:41:52.009Z,22.73
2022-12-24T08:44:21.539Z,20.90
2022-12-24T08:46:50.658Z,23.95
2022-12-24T08:49:19.836Z,39.00
2022-12-24T08:51:49.179Z,24.27
2022-12-24T08:54:19.856Z,22.95
2022-12-24T08:56:48.961Z,21.30
2022-12-24T08:59:21.962Z,20.67
2022-12-24T09:01:51.194Z,18.52
2022-12-24T09:04:20.700Z,24.48
2022-12-24T09:06:49.775Z,23.17
2022-12-24T09:09:20.333Z,21.30
2022-12-24T09:11:49.397Z,20.77
2022-12-24T09:14:19.221Z,17.67
2022-12-24T09:16:48.444Z,19.30
2022-12-24T09:19:17.752Z,18.23
2022-12-24T09:21:46.910Z,17.27
2022-12-24T09:24:16.087Z,16.77
2022-12-24T09:26:55.513Z,18.33
2022-12-24T09:29:26.894Z,22.33
2022-12-24T09:31:57.964Z,24.50
2022-12-24T09:34:30.611Z,16.45
2022-12-24T09:37:02.519Z,19.05
2022-12-24T09:39:31.843Z,15.38
2022-12-24T09:42:18.619Z,15.35
2022-12-24T09:44:52.791Z,19.70
2022-12-24T09:47:29.227Z,17.05
2022-12-24T09:50:02.222Z,15.17
2022-12-24T09:52:36.369Z,16.83
2022-12-24T09:55:17.467Z,20.77
2022-12-24T09:57:51.727Z,15.50
2022-12-24T10:00:25.217Z,16.00
2022-12-24T10:02:54.489Z,20.40
2022-12-24T10:05:35.586Z,20.52
2022-12-24T10:08:19.746Z,17.48
2022-12-24T10:10:54.123Z,18.73
2022-12-24T10:13:49.994Z,18.30
2022-12-24T10:16:26.782Z,16.17
2022-12-24T10:19:04.416Z,17.10
2022-12-24T10:21:45.501Z,17.70
2022-12-24T10:24:20.146Z,15.82
2022-12-24T10:26:57.381Z,17.55
2022-12-24T10:29:31.893Z,15.38
2022-12-24T10:32:17.378Z,15.93
2022-12-24T10:34:52.707Z,15.48
2022-12-24T10:37:26.384Z,16.25
2022-12-24T10:39:56.718Z,15.55
2022-12-24T10:42:36.264Z,14.43
2022-12-24T10:45:09.461Z,14.57
2022-12-24T10:47:41.368Z,14.45
2022-12-24T10:50:20.023Z,13.55
2022-12-24T10:52:56.705Z,15.57
2022-12-24T10:55:28.257Z,12.23
2022-12-24T10:58:06.110Z,14.70
2022-12-24T11:00:39.516Z,12.27
2022-12-24T11:03:26.174Z,12.05
2022-12-24T11:06:21.243Z,16.25
2022-12-24T11:08:50.399Z,14.40
2022-12-24T11:11:23.561Z,16.33
2022-12-24T11:13:57.789Z,15.13
2022-12-24T11:16:33.427Z,14.07
2022-12-24T11:19:05.148Z,17.75
2022-12-24T11:21:39.236Z,11.73
2022-12-24T11:24:25.309Z,11.23
2022-12-24T11:27:18.459Z,10.73
2022-12-24T11:29:48.496Z,12.13
2022-12-24T11:32:22.777Z,14.35
2022-12-24T11:34:52.328Z,17.30
2022-12-24T11:37:25.296Z,16.38
2022-12-24T11:39:57.348Z,15.98
2022-12-24T11:42:33.966Z,17.75
2022-12-24T11:45:07.278Z,18.98
2022-12-24T11:47:43.603Z,17.10
2022-12-24T11:50:26.771Z,18.20
2022-12-24T11:53:17.259Z,16.35
2022-12-24T11:55:52.677Z,15.85
2022-12-24T11:58:29.966Z,15.40
2022-12-24T12:01:15.432Z,15.55
2022-12-24T12:03:50.626Z,15.90
2022-12-24T12:06:30.118Z,15.80
2022-12-24T12:09:06.791Z,11.45
2022-12-24T12:11:36.885Z,12.32
2022-12-24T12:14:06.509Z,13.32
2022-12-24T12:17:05.218Z,10.43
2022-12-24T12:19:47.232Z,17.73
2022-12-24T12:22:27.364Z,13.63
2022-12-24T12:24:59.979Z,12.63
2022-12-24T12:27:36.974Z,13.15
2022-12-24T12:30:15.561Z,14.05
2022-12-24T12:32:52.851Z,12.38
2022-12-24T12:35:27.481Z,13.85
2022-12-24T12:38:00.884Z,13.98
2022-12-24T12:41:03.507Z,16.92
2022-12-24T12:44:22.607Z,14.68
2022-12-24T12:47:11.129Z,13.15
2022-12-24T12:49:51.052Z,15.00
2022-12-24T12:52:42.193Z,20.90
2022-12-24T12:55:34.681Z,18.90
2022-12-24T12:58:13.651Z,17.17
2022-12-24T13:00:46.305Z,15.60
2022-12-24T13:03:47.260Z,14.52
2022-12-24T13:06:52.500Z,16.05
2022-12-24T13:09:46.641Z,15.75
2022-12-24T13:12:41.142Z,18.63
2022-12-24T13:15:37.717Z,23.98
2022-12-24T13:18:30.463Z,24.40
2022-12-24T13:20:59.767Z,16.80
2022-12-24T13:23:29.539Z,13.13
2022-12-24T13:26:00.708Z,19.48
2022-12-24T13:28:38.797Z,20.80
2022-12-24T13:31:29.903Z,21.55
2022-12-24T13:34:04.454Z,19.65
2022-12-24T13:37:04.329Z,23.63
2022-12-24T13:40:17.293Z,30.27
2022-12-24T13:43:10.091Z,28.23
2022-12-24T13:45:51.010Z,28.92
2022-12-24T13:48:30.433Z,25.02
2022-12-24T13:51:03.062Z,24.73
2022-12-24T13:53:35.266Z,23.63
2022-12-24T13:56:09.985Z,25.95
2022-12-24T13:58:43.978Z,23.52
2022-12-24T14:01:16.227Z,20.42
2022-12-24T14:03:49.073Z,20.85
2022-12-24T14:06:26.111Z,27.20
2022-12-24T14:08:58.344Z,21.52
2022-12-24T14:11:34.532Z,21.88
2022-12-24T14:14:29.871Z,22.02
2022-12-24T14:17:01.545Z,22.67
2022-12-24T14:19:40.219Z,25.30
2022-12-24T14:22:30.116Z,30.23
2022-12-24T14:25:02.687Z,26.73
2022-12-24T14:27:40.614Z,23.67
2022-12-24T14:30:22.883Z,18.60
2022-12-24T14:32:54.140Z,22.73
2022-12-24T14:35:26.948Z,16.10
2022-12-24T14:38:02.746Z,25.05
2022-12-24T14:40:39.936Z,17.83
2022-12-24T14:43:21.601Z,21.48
2022-12-24T14:46:01.435Z,24.27
2022-12-24T14:48:40.344Z,31.23
2022-12-24T14:51:18.231Z,28.40
2022-12-24T14:54:27.950Z,47.78
2022-12-24T14:57:26.323Z,30.70
2022-12-24T14:59:57.881Z,25.73
2022-12-24T15:02:47.637Z,19.55
2022-12-24T15:05:20.655Z,17.98
2022-12-24T15:07:57.612Z,21.92
2022-12-24T15:10:33.969Z,19.00
2022-12-24T15:13:06.895Z,17.00
2022-12-24T15:15:36.687Z,21.25
2022-12-24T15:18:07.479Z,24.70
2022-12-24T15:20:36.612Z,24.83
2022-12-24T15:23:06.746Z,32.03
2022-12-24T15:25:35.827Z,72.78
2022-12-24T15:28:15.430Z,47.53
2022-12-24T15:30:44.853Z,31.85
2022-12-24T15:33:15.509Z,35.35
2022-12-24T15:35:53.728Z,33.72
2022-12-24T15:38:34.280Z,19.83
2022-12-24T15:41:06.484Z,15.50
2022-12-24T15:43:41.445Z,13.45
2022-12-24T15:46:10.650Z,16.65
2022-12-24T15:48:46.402Z,15.13
2022-12-24T15:51:25.221Z,16.67
2022-12-24T15:54:02.426Z,18.85
2022-12-24T15:56:36.856Z,18.33
2022-12-24T15:59:32.042Z,17.95
2022-12-24T16:02:48.895Z,19.00
2022-12-24T16:05:35.809Z,19.45
2022-12-24T16:08:25.286Z,23.88
2022-12-24T16:11:09.178Z,20.23
2022-12-24T16:13:41.823Z,18.00
2022-12-24T16:16:14.393Z,23.25
2022-12-24T16:18:52.908Z,19.80
2022-12-24T16:21:29.502Z,24.25
2022-12-24T16:24:06.379Z,21.90
2022-12-24T16:26:36.256Z,17.70
2022-12-24T16:29:05.395Z,23.23
2022-12-24T16:31:38.014Z,27.23
2022-12-24T16:34:07.562Z,25.17
2022-12-24T16:36:38.004Z,17.80
2022-12-24T16:39:20.958Z,16.25
2022-12-24T16:42:07.846Z,18.65
2022-12-24T16:44:37.227Z,19.58
2022-12-24T16:47:08.663Z,21.25
2022-12-24T16:49:39.448Z,27.75
2022-12-24T16:52:18.256Z,25.27
2022-12-24T16:54:47.302Z,25.20
2022-12-24T16:57:16.644Z,24.02
2022-12-24T16:59:45.938Z,31.63
2022-12-24T17:02:18.406Z,27.58
2022-12-24T17:04:48.286Z,20.92
2022-12-24T17:07:21.592Z,20.60
2022-12-24T17:09:50.676Z,17.63
2022-12-24T17:12:21.407Z,17.48
2022-12-24T17:14:50.760Z,19.45
2022-12-24T17:17:25.805Z,17.60
2022-12-24T17:19:56.006Z,23.48
2022-12-24T17:22:27.822Z,22.20
2022-12-24T17:24:57.692Z,40.83
2022-12-24T17:27:26.783Z,32.40
2022-12-24T17:29:56.012Z,52.10
2022-12-24T17:32:27.439Z,60.80
2022-12-24T17:34:56.855Z,53.75
2022-12-24T17:37:27.517Z,49.05
2022-12-24T17:40:00.203Z,36.05
2022-12-24T17:42:29.411Z,30.45
2022-12-24T17:44:58.524Z,47.78
2022-12-24T17:47:27.557Z,34.60
2022-12-24T17:49:56.753Z,32.40
2022-12-24T17:52:27.199Z,34.38
2022-12-24T17:54:56.335Z,39.47
2022-12-24T17:57:25.412Z,56.28
2022-12-24T17:59:54.563Z,49.50
2022-12-24T18:02:23.780Z,43.10
2022-12-24T18:04:53.094Z,46.88
2022-12-24T18:07:22.240Z,42.08
2022-12-24T18:09:52.883Z,41.83
2022-12-24T18:12:22.024Z,51.05
2022-12-24T18:14:51.188Z,56.60
2022-12-24T18:17:20.463Z,45.00
2022-12-24T18:19:49.980Z,39.42
2022-12-24T18:22:19.159Z,27.67
2022-12-24T18:24:48.403Z,21.38
2022-12-24T18:27:19.096Z,25.67
2022-12-24T18:29:48.319Z,24.05
2022-12-24T18:32:18.092Z,25.50
2022-12-24T18:34:47.320Z,26.90
2022-12-24T18:37:16.489Z,26.83
2022-12-24T18:39:45.778Z,23.50
2022-12-24T18:42:15.619Z,21.60
2022-12-24T18:44:46.864Z,25.40
2022-12-24T18:47:16.340Z,21.70
2022-12-24T18:49:45.480Z,24.60
2022-12-24T18:52:22.451Z,25.75
2022-12-24T18:54:52.173Z,26.73
2022-12-24T18:57:21.354Z,29.50
2022-12-24T18:59:53.184Z,29.80
2022-12-24T19:02:22.321Z,29.45
2022-12-24T19:04:51.879Z,36.38
2022-12-24T19:07:20.984Z,33.85
2022-12-24T19:09:50.291Z,34.83
2022-12-24T19:12:22.502Z,36.88
2022-12-24T19:14:53.060Z,41.58
2022-12-24T19:17:22.304Z,29.27
2022-12-24T19:19:52.552Z,28.42
2022-12-24T19:22:21.734Z,28.15
2022-12-24T19:24:51.876Z,29.20
2022-12-24T19:27:21.246Z,22.73
2022-12-24T19:29:50.400Z,22.13
2022-12-24T19:32:21.075Z,24.40
2022-12-24T19:34:50.207Z,22.58
2022-12-24T19:37:19.328Z,22.73
2022-12-24T19:39:48.759Z,28.40
2022-12-24T19:42:18.106Z,25.52
2022-12-24T19:44:47.178Z,25.95
2022-12-24T19:47:16.511Z,28.42
2022-12-24T19:49:47.709Z,25.58
2022-12-24T19:52:16.963Z,23.05
2022-12-24T19:54:46.192Z,24.15
2022-12-24T19:57:15.277Z,25.77
2022-12-24T19:59:45.387Z,24.65
2022-12-24T20:02:14.810Z,20.80
2022-12-24T20:04:44.319Z,21.27
2022-12-24T20:07:14.896Z,21.05
2022-12-24T20:09:44.014Z,21.13
2022-12-24T20:12:13.181Z,24.92
2022-12-24T20:14:42.506Z,25.92
2022-12-24T20:17:12.184Z,28.55
2022-12-24T20:19:41.538Z,24.63
2022-12-24T20:22:10.951Z,26.98
2022-12-24T20:24:41.800Z,26.83
2022-12-24T20:27:11.717Z,26.27
2022-12-24T20:29:40.911Z,25.33
2022-12-24T20:32:10.049Z,29.25
2022-12-24T20:34:39.301Z,30.33
2022-12-24T20:37:08.848Z,26.45
2022-12-24T20:39:38.103Z,26.77
2022-12-24T20:42:08.791Z,30.95
2022-12-24T20:44:38.337Z,28.60
2022-12-24T20:47:07.486Z,28.30
2022-12-24T20:49:36.554Z,26.10
2022-12-24T20:52:06.238Z,29.17
2022-12-24T20:54:35.543Z,25.02
2022-12-24T20:57:05.148Z,26.90
2022-12-24T20:59:38.815Z,27.77
2022-12-24T21:02:09.088Z,28.23
2022-12-24T21:04:40.063Z,28.65
2022-12-24T21:07:09.730Z,29.45
2022-12-24T21:09:39.515Z,31.63
2022-12-24T21:12:29.388Z,25.77
2022-12-24T21:15:00.329Z,27.60
2022-12-24T21:17:30.330Z,29.75
2022-12-24T21:20:00.590Z,34.28
2022-12-24T21:22:29.823Z,39.13
2022-12-24T21:24:58.891Z,40.85
2022-12-24T21:27:30.228Z,35.80
2022-12-24T21:30:03.353Z,35.05
2022-12-24T21:32:32.855Z,32.85
2022-12-24T21:35:02.086Z,39.38
2022-12-24T21:37:31.314Z,35.08
2022-12-24T21:40:00.745Z,32.75
2022-12-24T21:42:32.609Z,31.60
2022-12-24T21:45:04.741Z,33.85
2022-12-24T21:47:35.241Z,32.65
2022-12-24T21:50:25.624Z,31.27
2022-12-24T21:53:19.703Z,32.70
2022-12-24T21:55:48.116Z,26.73
2022-12-24T21:58:18.619Z,29.48
2022-12-24T22:00:49.107Z,30.52
2022-12-24T22:03:18.255Z,27.15
2022-12-24T22:05:47.534Z,29.35
2022-12-24T22:08:33.999Z,27.35
2022-12-24T22:11:22.651Z,27.38
2022-12-24T22:13:51.767Z,28.67
2022-12-24T22:16:22.301Z,25.48
2022-12-24T22:18:52.155Z,24.27
2022-12-24T22:21:21.607Z,28.77
2022-12-24T22:23:50.947Z,25.58
2022-12-24T22:26:20.353Z,22.73
2022-12-24T22:28:49.704Z,23.67
2022-12-24T22:31:19.950Z,25.27
2022-12-24T22:33:50.721Z,24.65
2022-12-24T22:36:20.450Z,26.52
2022-12-24T22:38:49.584Z,29.27
2022-12-24T22:41:19.128Z,22.05
2022-12-24T22:43:50.158Z,29.50
2022-12-24T22:46:19.477Z,26.73
2022-12-24T22:48:50.144Z,29.63
2022-12-24T22:51:22.658Z,33.67
2022-12-24T22:53:51.768Z,25.85
2022-12-24T22:56:23.678Z,30.00
2022-12-24T22:58:55.348Z,25.17
2022-12-24T23:01:34.638Z,28.88
2022-12-24T23:04:08.197Z,22.77
2022-12-24T23:06:37.501Z,24.15
2022-12-24T23:09:09.234Z,23.80
2022-12-24T23:11:38.455Z,23.88
2022-12-24T23:14:25.053Z,22.83
2022-12-24T23:16:54.651Z,23.83
2022-12-24T23:19:25.195Z,23.80
2022-12-24T23:21:54.368Z,25.75
2022-12-24T23:24:23.745Z,22.70
2022-12-24T23:26:52.944Z,25.58
2022-12-24T23:29:22.488Z,24.50
2022-12-24T23:31:51.580Z,24.45
2022-12-24T23:34:20.723Z,25.85
2022-12-24T23:36:51.254Z,24.70
2022-12-24T23:39:20.476Z,26.73
2022-12-24T23:41:49.732Z,26.20
2022-12-24T23:44:19.325Z,25.00
2022-12-24T23:46:48.458Z,25.90
2022-12-24T23:49:17.750Z,23.48
2022-12-24T23:51:46.882Z,22.45
2022-12-24T23:54:17.546Z,25.08
2022-12-24T23:56:47.035Z,21.88
2022-12-24T23:59:16.120Z,25.00
